createdAt,value
2023-01-26T00:03:52.728Z,59.72
2023-01-26T00:08:56.499Z,53.28
2023-01-26T00:13:59.789Z,57.63
2023-01-26T00:19:01.601Z,56.70
2023-01-26T00:24:04.730Z,53.97
2023-01-26T00:29:06.458Z,57.42
2023-01-26T00:34:08.090Z,55.35
2023-01-26T00:39:09.694Z,52.60
2023-01-26T00:44:11.366Z,57.05
2023-01-26T00:49:12.980Z,69.82
2023-01-26T00:54:14.683Z,62.45
2023-01-26T00:59:16.303Z,58.80
2023-01-26T01:04:21.495Z,64.05
2023-01-26T01:09:23.443Z,67.20
2023-01-26T01:14:25.125Z,59.35
2023-01-26T01:19:27.446Z,64.18
2023-01-26T01:24:29.095Z,64.20
2023-01-26T01:29:30.713Z,72.43
2023-01-26T01:34:32.901Z,63.75
2023-01-26T01:39:34.535Z,67.53
2023-01-26T01:44:38.147Z,65.50
2023-01-26T01:49:50.762Z,62.83
2023-01-26T01:55:08.413Z,71.05
2023-01-26T02:00:13.083Z,63.67
2023-01-26T02:05:26.836Z,69.47
2023-01-26T02:10:30.148Z,68.05
2023-01-26T02:15:32.098Z,71.40
2023-01-26T02:20:39.863Z,66.95
2023-01-26T02:25:52.091Z,68.88
2023-01-26T02:30:55.940Z,71.68
2023-01-26T02:35:58.670Z,71.53
2023-01-26T02:41:05.905Z,67.78
2023-01-26T02:46:07.652Z,73.43
2023-01-26T02:51:13.061Z,86.53
2023-01-26T02:56:14.791Z,69.28
2023-01-26T03:01:16.489Z,67.93
2023-01-26T03:06:22.253Z,73.13
2023-01-26T03:11:24.499Z,69.88
2023-01-26T03:16:26.154Z,74.53
2023-01-26T03:21:46.469Z,75.00
2023-01-26T03:27:06.910Z,72.18
2023-01-26T03:32:08.871Z,76.43
2023-01-26T03:37:12.623Z,82.27
2023-01-26T03:42:46.226Z,82.07
2023-01-26T03:48:07.678Z,81.47
2023-01-26T03:53:38.753Z,73.53
2023-01-26T03:58:57.391Z,76.85
2023-01-26T04:04:21.196Z,80.38
2023-01-26T04:09:23.783Z,64.95
2023-01-26T04:14:49.412Z,71.20
2023-01-26T04:20:13.577Z,69.47
2023-01-26T04:25:19.302Z,68.10
2023-01-26T04:30:21.276Z,77.82
2023-01-26T04:35:23.554Z,74.18
2023-01-26T04:40:25.273Z,67.00
2023-01-26T04:45:26.991Z,69.17
2023-01-26T04:50:28.911Z,66.07
2023-01-26T04:55:30.572Z,65.97
2023-01-26T05:00:33.498Z,70.25
2023-01-26T05:05:40.180Z,63.65
2023-01-26T05:10:42.942Z,75.80
2023-01-26T05:15:57.603Z,62.28
2023-01-26T05:21:13.128Z,60.17
2023-01-26T05:26:19.709Z,62.88
2023-01-26T05:31:41.601Z,56.60
2023-01-26T05:36:44.409Z,58.10
2023-01-26T05:41:46.053Z,58.60
2023-01-26T05:46:53.357Z,55.43
2023-01-26T05:51:55.315Z,55.42
2023-01-26T05:56:58.177Z,42.33
2023-01-26T06:02:02.166Z,52.83
2023-01-26T06:07:04.373Z,53.00
2023-01-26T06:12:15.618Z,57.08
2023-01-26T06:17:32.467Z,62.58
2023-01-26T06:22:37.098Z,66.40
2023-01-26T06:27:42.273Z,49.10
2023-01-26T06:32:59.784Z,62.60
2023-01-26T06:38:01.921Z,58.10
2023-01-26T06:43:03.567Z,61.47
2023-01-26T06:48:07.219Z,57.53
2023-01-26T06:53:33.712Z,45.37
2023-01-26T06:58:56.140Z,60.60
2023-01-26T07:04:17.155Z,54.50
2023-01-26T07:09:18.750Z,47.72
2023-01-26T07:14:20.337Z,52.25
2023-01-26T07:19:22.512Z,55.42
2023-01-26T07:24:24.990Z,62.57
2023-01-26T07:29:26.675Z,53.40
2023-01-26T07:34:28.276Z,64.03
2023-01-26T07:39:29.894Z,55.20
2023-01-26T07:44:31.540Z,51.72
2023-01-26T07:49:33.779Z,52.00
2023-01-26T07:54:35.499Z,55.93
2023-01-26T07:59:37.126Z,50.90
2023-01-26T08:04:38.736Z,49.15
2023-01-26T08:09:40.352Z,45.87
2023-01-26T08:14:47.097Z,42.63
2023-01-26T08:19:48.960Z,52.20
2023-01-26T08:24:50.552Z,46.42
2023-01-26T08:29:52.183Z,58.73
2023-01-26T08:34:53.741Z,50.33
2023-01-26T08:39:55.347Z,59.58
2023-01-26T08:44:56.971Z,53.78
2023-01-26T08:49:58.562Z,47.08
2023-01-26T08:55:01.001Z,59.40
2023-01-26T09:00:03.484Z,56.80
2023-01-26T09:05:05.520Z,57.55
2023-01-26T09:10:08.198Z,50.53
2023-01-26T09:15:10.523Z,48.87
2023-01-26T09:20:12.985Z,51.60
2023-01-26T09:25:15.293Z,46.10
2023-01-26T09:30:17.585Z,52.35
2023-01-26T09:35:19.549Z,53.53
2023-01-26T09:40:49.801Z,52.13
2023-01-26T09:46:01.876Z,49.13
2023-01-26T09:51:20.533Z,44.67
2023-01-26T09:56:25.589Z,47.63
2023-01-26T10:01:36.850Z,57.20
2023-01-26T10:06:38.978Z,50.78
2023-01-26T10:11:58.423Z,45.35
2023-01-26T10:17:01.181Z,51.88
2023-01-26T10:22:11.360Z,47.45
2023-01-26T10:27:15.930Z,41.90
2023-01-26T10:32:18.279Z,41.95
2023-01-26T10:37:23.681Z,47.35
2023-01-26T10:42:29.106Z,45.92
2023-01-26T10:47:31.060Z,54.17
2023-01-26T10:52:32.669Z,50.97
2023-01-26T10:57:39.019Z,48.40
2023-01-26T11:02:50.502Z,45.45
2023-01-26T11:08:00.563Z,45.75
2023-01-26T11:13:20.148Z,49.30
2023-01-26T11:18:51.820Z,45.58
2023-01-26T11:24:23.943Z,48.28
2023-01-26T11:29:46.569Z,45.38
2023-01-26T11:35:03.144Z,45.42
2023-01-26T11:40:26.530Z,42.88
2023-01-26T11:45:46.158Z,44.58
2023-01-26T11:51:29.775Z,43.38
2023-01-26T11:56:56.155Z,38.70
2023-01-26T12:02:00.841Z,49.13
2023-01-26T12:07:20.271Z,38.40
2023-01-26T12:12:35.573Z,53.43
2023-01-26T12:18:01.466Z,46.83
2023-01-26T12:23:03.083Z,39.05
2023-01-26T12:28:27.631Z,39.20
2023-01-26T12:33:31.245Z,37.63
2023-01-26T12:39:08.817Z,36.10
2023-01-26T12:44:39.112Z,37.22
2023-01-26T12:49:51.487Z,34.38
2023-01-26T12:55:04.983Z,40.63
2023-01-26T13:00:19.500Z,34.38
2023-01-26T13:05:28.417Z,32.87
2023-01-26T13:10:44.844Z,30.75
2023-01-26T13:15:46.945Z,26.45
2023-01-26T13:20:49.882Z,26.80
2023-01-26T13:26:11.499Z,31.02
2023-01-26T13:31:13.519Z,27.63
2023-01-26T13:36:19.327Z,31.45
2023-01-26T13:41:22.192Z,21.13
2023-01-26T13:46:47.272Z,24.48
2023-01-26T13:51:48.954Z,24.33
2023-01-26T13:57:05.369Z,23.90
2023-01-26T14:02:11.904Z,28.40
2023-01-26T14:07:17.872Z,26.33
2023-01-26T14:12:30.943Z,30.05
2023-01-26T14:17:36.693Z,26.23
2023-01-26T14:22:38.720Z,25.43
2023-01-26T14:27:42.311Z,28.30
2023-01-26T14:32:43.931Z,24.83
2023-01-26T14:37:45.590Z,26.42
2023-01-26T14:42:50.164Z,26.07
2023-01-26T14:47:52.715Z,21.50
2023-01-26T14:52:54.590Z,31.00
2023-01-26T14:57:58.327Z,30.60
2023-01-26T15:03:04.560Z,22.27
2023-01-26T15:08:20.100Z,21.27
2023-01-26T15:13:23.905Z,23.23
2023-01-26T15:18:31.450Z,24.45
2023-01-26T15:23:35.970Z,24.83
2023-01-26T15:28:38.672Z,24.70
2023-01-26T15:33:49.772Z,23.20
2023-01-26T15:39:00.848Z,30.85
2023-01-26T15:44:02.504Z,22.17
2023-01-26T15:49:04.109Z,24.40
2023-01-26T15:54:05.806Z,27.83
2023-01-26T15:59:07.420Z,27.83
2023-01-26T16:04:13.434Z,27.60
2023-01-26T16:09:15.052Z,25.58
2023-01-26T16:14:16.723Z,22.97
2023-01-26T16:19:33.697Z,23.92
2023-01-26T16:24:37.123Z,20.58
2023-01-26T16:29:38.759Z,21.67
2023-01-26T16:34:40.374Z,22.77
2023-01-26T16:39:41.978Z,23.17
2023-01-26T16:44:43.631Z,25.83
2023-01-26T16:49:45.620Z,27.17
2023-01-26T16:54:48.366Z,26.30
2023-01-26T16:59:49.977Z,21.20
2023-01-26T17:04:52.224Z,30.93
2023-01-26T17:09:53.863Z,32.20
2023-01-26T17:14:55.514Z,31.87
2023-01-26T17:20:01.498Z,28.97
2023-01-26T17:25:11.222Z,30.17
2023-01-26T17:30:13.687Z,30.67
2023-01-26T17:35:15.423Z,27.20
2023-01-26T17:40:17.112Z,27.60
2023-01-26T17:45:18.726Z,26.33
2023-01-26T17:50:20.709Z,29.13
2023-01-26T17:55:22.341Z,25.43
2023-01-26T18:00:23.946Z,21.23
2023-01-26T18:05:25.532Z,27.60
2023-01-26T18:10:30.464Z,22.27
2023-01-26T18:15:32.088Z,24.67
2023-01-26T18:20:33.890Z,21.50
2023-01-26T18:25:36.564Z,19.58
2023-01-26T18:30:38.487Z,22.73
2023-01-26T18:35:40.627Z,21.88
2023-01-26T18:40:42.248Z,21.98
2023-01-26T18:45:43.913Z,26.43
2023-01-26T18:50:49.560Z,23.63
2023-01-26T18:55:55.265Z,20.97
2023-01-26T19:00:57.043Z,22.45
2023-01-26T19:06:03.173Z,20.97
2023-01-26T19:11:06.641Z,17.33
2023-01-26T19:16:09.032Z,18.80
2023-01-26T19:21:10.753Z,26.17
2023-01-26T19:26:15.146Z,22.27
2023-01-26T19:31:19.417Z,22.60
2023-01-26T19:36:22.557Z,23.87
2023-01-26T19:41:24.829Z,28.87
2023-01-26T19:46:26.807Z,24.40
2023-01-26T19:51:29.404Z,27.17
2023-01-26T19:56:35.117Z,33.30
2023-01-26T20:01:36.789Z,29.73
2023-01-26T20:06:38.912Z,30.83
2023-01-26T20:11:40.617Z,33.53
2023-01-26T20:16:42.451Z,32.67
2023-01-26T20:21:44.862Z,30.70
2023-01-26T20:26:47.029Z,31.03
2023-01-26T20:31:49.430Z,35.20
2023-01-26T20:36:54.611Z,38.72
2023-01-26T20:41:56.256Z,35.17
2023-01-26T20:46:58.750Z,36.95
2023-01-26T20:52:00.490Z,34.00
2023-01-26T20:57:03.707Z,42.67
2023-01-26T21:02:05.340Z,39.15
2023-01-26T21:07:08.019Z,40.23
2023-01-26T21:12:09.646Z,44.13
2023-01-26T21:17:11.238Z,36.10
2023-01-26T21:22:12.846Z,43.42
2023-01-26T21:27:14.499Z,36.47
2023-01-26T21:32:16.104Z,42.38
2023-01-26T21:37:17.793Z,34.60
2023-01-26T21:42:19.452Z,39.63
2023-01-26T21:47:21.125Z,34.00
2023-01-26T21:52:41.137Z,34.10
2023-01-26T21:58:01.339Z,35.38
2023-01-26T22:03:02.975Z,31.88
2023-01-26T22:08:05.261Z,31.07
2023-01-26T22:13:08.008Z,32.63
2023-01-26T22:18:09.629Z,35.30
2023-01-26T22:23:11.583Z,32.42
2023-01-26T22:28:13.320Z,35.42
2023-01-26T22:33:15.044Z,34.50
2023-01-26T22:38:16.758Z,33.53
2023-01-26T22:43:18.385Z,32.17
2023-01-26T22:48:21.143Z,35.03
2023-01-26T22:53:22.769Z,35.50
2023-01-26T22:58:24.427Z,32.22
2023-01-26T23:03:26.008Z,32.83
2023-01-26T23:08:29.175Z,35.40
2023-01-26T23:13:31.271Z,34.03
2023-01-26T23:18:33.273Z,24.95
2023-01-26T23:23:34.993Z,30.17
2023-01-26T23:28:39.199Z,29.23
2023-01-26T23:33:41.151Z,33.07
2023-01-26T23:38:44.647Z,33.95
2023-01-26T23:43:46.520Z,31.77
2023-01-26T23:48:48.111Z,35.93
2023-01-26T23:53:49.743Z,26.52
2023-01-26T23:58:51.331Z,27.42
